createdAt,value
2018-09-14T00:02:16.354Z,15.30
2018-09-14T00:04:44.663Z,15.30
2018-09-14T00:07:12.875Z,15.30
2018-09-14T00:09:41.183Z,15.30
2018-09-14T00:12:09.395Z,15.30
2018-09-14T00:14:37.626Z,15.20
2018-09-14T00:17:06.802Z,15.20
2018-09-14T00:19:34.980Z,15.30
2018-09-14T00:22:03.285Z,15.20
2018-09-14T00:24:31.502Z,15.20
2018-09-14T00:26:59.713Z,15.20
2018-09-14T00:29:27.957Z,15.10
2018-09-14T00:31:56.137Z,15.10
2018-09-14T00:34:24.326Z,15.10
2018-09-14T00:36:52.479Z,15.10
2018-09-14T00:39:20.733Z,15.10
2018-09-14T00:44:16.976Z,15.10
2018-09-14T00:46:45.140Z,15.10
2018-09-14T00:49:13.307Z,15.10
2018-09-14T00:51:41.500Z,15.00
2018-09-14T00:54:09.691Z,15.10
2018-09-14T00:56:37.892Z,15.10
2018-09-14T00:59:06.174Z,15.10
2018-09-14T01:01:34.342Z,15.20
2018-09-14T01:04:02.560Z,15.10
2018-09-14T01:06:30.724Z,15.10
2018-09-14T01:08:58.933Z,15.10
2018-09-14T01:11:27.142Z,15.10
2018-09-14T01:13:55.303Z,15.00
2018-09-14T01:16:23.487Z,15.00
2018-09-14T01:21:19.636Z,15.00
2018-09-14T01:23:47.803Z,15.00
2018-09-14T01:26:15.963Z,15.00
2018-09-14T01:28:44.185Z,15.00
2018-09-14T01:31:12.411Z,15.00
2018-09-14T01:33:40.611Z,15.00
2018-09-14T01:36:10.748Z,15.00
2018-09-14T01:38:38.947Z,15.00
2018-09-14T01:41:07.324Z,15.00
2018-09-14T01:43:35.496Z,15.10
2018-09-14T01:46:03.718Z,15.10
2018-09-14T01:48:31.905Z,15.10
2018-09-14T01:51:00.109Z,15.10
2018-09-14T01:53:28.316Z,15.10
2018-09-14T01:55:56.542Z,15.10
2018-09-14T01:58:24.897Z,15.00
2018-09-14T02:00:53.126Z,15.00
2018-09-14T02:03:21.298Z,15.00
2018-09-14T02:05:49.528Z,15.00
2018-09-14T02:08:17.743Z,15.00
2018-09-14T02:10:45.924Z,15.00
2018-09-14T02:13:14.187Z,15.00
2018-09-14T02:15:42.444Z,14.90
2018-09-14T02:18:10.616Z,14.90
2018-09-14T02:20:38.775Z,14.90
2018-09-14T02:23:07.045Z,14.90
2018-09-14T02:25:35.212Z,14.90
2018-09-14T02:28:03.389Z,14.90
2018-09-14T02:30:31.586Z,14.90
2018-09-14T02:32:59.800Z,14.90
2018-09-14T02:35:28.089Z,14.90
2018-09-14T02:37:56.341Z,14.80
2018-09-14T02:40:24.525Z,14.80
2018-09-14T02:42:52.696Z,14.80
2018-09-14T02:45:20.887Z,14.80
2018-09-14T02:47:49.077Z,14.80
2018-09-14T02:50:17.364Z,14.80
2018-09-14T02:52:45.520Z,14.80
2018-09-14T02:55:13.708Z,14.80
2018-09-14T02:57:41.899Z,14.70
2018-09-14T03:00:10.371Z,14.80
2018-09-14T03:02:38.491Z,14.70
2018-09-14T03:05:06.744Z,14.80
2018-09-14T03:07:34.985Z,14.70
2018-09-14T03:10:03.140Z,14.70
2018-09-14T03:12:31.368Z,14.70
2018-09-14T03:14:59.542Z,14.70
2018-09-14T03:17:27.803Z,14.70
2018-09-14T03:19:55.996Z,14.70
2018-09-14T03:22:24.188Z,14.70
2018-09-14T03:24:52.383Z,14.70
2018-09-14T03:27:20.635Z,14.70
2018-09-14T03:29:48.838Z,14.70
2018-09-14T03:32:17.040Z,14.60
2018-09-14T03:34:45.201Z,14.60
2018-09-14T03:37:13.412Z,14.60
2018-09-14T03:42:09.559Z,14.60
2018-09-14T03:44:37.733Z,14.60
2018-09-14T03:47:05.951Z,14.60
2018-09-14T03:49:34.495Z,14.60
2018-09-14T03:52:02.673Z,14.60
2018-09-14T03:54:31.821Z,14.60
2018-09-14T03:57:03.553Z,14.50
2018-09-14T03:59:33.615Z,14.50
2018-09-14T04:02:01.897Z,14.50
2018-09-14T04:04:30.240Z,14.50
2018-09-14T04:06:58.457Z,14.50
2018-09-14T04:09:26.696Z,14.40
2018-09-14T04:11:54.856Z,14.40
2018-09-14T04:14:23.169Z,14.40
2018-09-14T04:16:51.325Z,14.40
2018-09-14T04:19:19.480Z,14.40
2018-09-14T04:21:47.671Z,14.40
2018-09-14T04:24:15.885Z,14.40
2018-09-14T04:26:44.085Z,14.40
2018-09-14T04:29:12.349Z,14.40
2018-09-14T04:31:40.543Z,14.40
2018-09-14T04:34:08.739Z,14.40
2018-09-14T04:36:36.989Z,14.40
2018-09-14T04:39:07.836Z,14.30
2018-09-14T04:41:36.016Z,14.40
2018-09-14T04:44:04.179Z,14.30
2018-09-14T04:46:32.376Z,14.30
2018-09-14T04:49:00.545Z,14.30
2018-09-14T04:51:28.808Z,14.30
2018-09-14T04:53:56.910Z,14.30
2018-09-14T04:56:25.091Z,14.30
2018-09-14T04:58:53.320Z,14.30
2018-09-14T05:01:21.491Z,14.30
2018-09-14T05:03:49.658Z,14.30
2018-09-14T05:06:17.900Z,14.20
2018-09-14T05:08:46.076Z,14.20
2018-09-14T05:11:14.287Z,14.30
2018-09-14T05:13:42.460Z,14.30
2018-09-14T05:16:10.661Z,14.30
2018-09-14T05:18:38.908Z,14.20
2018-09-14T05:21:07.186Z,14.20
2018-09-14T05:23:35.450Z,14.30
2018-09-14T05:26:03.597Z,14.30
2018-09-14T05:28:31.850Z,14.30
2018-09-14T05:30:59.983Z,14.30
2018-09-14T05:33:28.222Z,14.30
2018-09-14T05:35:56.447Z,14.30
2018-09-14T05:38:24.673Z,14.30
2018-09-14T05:40:52.784Z,14.30
2018-09-14T05:43:20.992Z,14.20
2018-09-14T05:45:49.271Z,14.30
2018-09-14T05:48:17.341Z,14.30
2018-09-14T05:50:45.545Z,14.30
2018-09-14T05:53:13.771Z,14.30
2018-09-14T05:55:42.192Z,14.30
2018-09-14T05:58:10.402Z,14.30
2018-09-14T06:00:38.581Z,14.40
2018-09-14T06:05:34.786Z,14.40
2018-09-14T06:08:03.020Z,14.30
2018-09-14T06:10:31.256Z,14.40
2018-09-14T06:12:59.447Z,14.40
2018-09-14T06:15:27.623Z,14.40
2018-09-14T06:17:55.866Z,14.40
2018-09-14T06:20:24.119Z,14.40
2018-09-14T06:22:52.518Z,14.40
2018-09-14T06:25:20.606Z,14.40
2018-09-14T06:27:48.904Z,14.50
2018-09-14T06:30:17.161Z,14.50
2018-09-14T06:32:45.396Z,14.50
2018-09-14T06:35:13.587Z,14.50
2018-09-14T06:37:43.219Z,14.50
2018-09-14T06:40:11.425Z,14.50
2018-09-14T06:42:39.674Z,14.50
2018-09-14T06:45:07.877Z,14.60
2018-09-14T06:47:36.117Z,14.60
2018-09-14T06:50:04.379Z,14.50
2018-09-14T06:52:32.767Z,14.50
2018-09-14T06:55:00.923Z,14.60
2018-09-14T06:57:29.112Z,14.60
2018-09-14T06:59:57.378Z,14.70
2018-09-14T07:02:25.595Z,14.70
2018-09-14T07:04:54.017Z,14.80
2018-09-14T07:07:22.208Z,14.90
2018-09-14T07:09:50.532Z,14.90
2018-09-14T07:12:18.793Z,14.80
2018-09-14T07:14:46.984Z,14.90
2018-09-14T07:17:15.163Z,15.00
2018-09-14T07:19:43.327Z,15.10
2018-09-14T07:22:11.576Z,15.10
2018-09-14T07:24:39.836Z,15.10
2018-09-14T07:27:07.961Z,15.00
2018-09-14T07:29:36.171Z,15.00
2018-09-14T07:32:04.295Z,15.00
2018-09-14T07:34:32.680Z,15.00
2018-09-14T07:37:01.036Z,15.00
2018-09-14T07:39:29.299Z,15.10
2018-09-14T07:41:57.505Z,15.10
2018-09-14T07:44:25.779Z,15.00
2018-09-14T07:46:54.012Z,15.10
2018-09-14T07:49:22.202Z,15.00
2018-09-14T07:51:50.512Z,15.00
2018-09-14T07:54:18.908Z,15.10
2018-09-14T07:56:47.138Z,15.10
2018-09-14T07:59:15.334Z,15.10
2018-09-14T08:01:43.585Z,15.20
2018-09-14T08:04:11.769Z,15.20
2018-09-14T08:06:39.957Z,15.20
2018-09-14T08:09:10.640Z,15.50
2018-09-14T08:14:06.976Z,15.60
2018-09-14T08:16:35.379Z,15.60
2018-09-14T08:19:03.665Z,15.90
2018-09-14T08:21:32.099Z,15.90
2018-09-14T08:24:00.240Z,15.90
2018-09-14T08:26:28.511Z,15.80
2018-09-14T08:28:56.755Z,16.10
2018-09-14T08:31:25.430Z,16.20
2018-09-14T08:33:53.981Z,16.30
2018-09-14T08:36:22.133Z,16.30
2018-09-14T08:38:50.329Z,16.50
2018-09-14T08:41:18.745Z,16.50
2018-09-14T08:43:47.017Z,16.40
2018-09-14T08:46:15.233Z,16.20
2018-09-14T08:48:43.405Z,16.30
2018-09-14T08:51:11.580Z,16.50
2018-09-14T08:53:39.960Z,16.60
2018-09-14T08:56:08.113Z,16.60
2018-09-14T08:58:36.427Z,16.60
2018-09-14T09:01:04.696Z,16.70
2018-09-14T09:03:32.930Z,16.80
2018-09-14T09:06:01.112Z,16.90
2018-09-14T09:08:29.285Z,16.90
2018-09-14T09:13:25.448Z,17.00
2018-09-14T09:15:53.700Z,17.00
2018-09-14T09:18:21.880Z,17.10
2018-09-14T09:20:50.073Z,17.20
2018-09-14T09:23:18.391Z,17.50
2018-09-14T09:25:46.575Z,17.60
2018-09-14T09:28:14.810Z,17.60
2018-09-14T09:30:43.032Z,17.80
2018-09-14T09:33:11.248Z,17.80
2018-09-14T09:35:39.554Z,17.80
2018-09-14T09:38:07.806Z,17.70
2018-09-14T09:40:36.337Z,17.70
2018-09-14T09:43:04.725Z,17.70
2018-09-14T09:45:32.838Z,17.70
2018-09-14T09:48:01.079Z,17.80
2018-09-14T09:50:29.344Z,17.80
2018-09-14T09:52:57.646Z,17.80
2018-09-14T09:55:25.841Z,17.80
2018-09-14T09:57:54.068Z,17.70
2018-09-14T10:00:27.582Z,17.70
2018-09-14T10:03:01.277Z,17.80
2018-09-14T10:05:35.066Z,17.90
2018-09-14T10:08:03.337Z,18.00
2018-09-14T10:10:31.502Z,17.90
2018-09-14T10:12:59.700Z,18.00
2018-09-14T10:15:27.856Z,18.00
2018-09-14T10:17:56.026Z,18.00
2018-09-14T10:20:24.244Z,18.00
2018-09-14T10:22:52.490Z,18.10
2018-09-14T10:25:20.805Z,18.30
2018-09-14T10:27:48.967Z,18.40
2018-09-14T10:30:17.109Z,18.50
2018-09-14T10:32:45.291Z,18.80
2018-09-14T10:35:13.479Z,18.70
2018-09-14T10:37:41.745Z,18.90
2018-09-14T10:40:10.027Z,19.10
2018-09-14T10:42:38.617Z,19.10
2018-09-14T10:45:06.795Z,19.10
2018-09-14T10:47:34.975Z,19.20
2018-09-14T10:50:03.245Z,19.30
2018-09-14T10:52:31.384Z,19.40
2018-09-14T10:54:59.653Z,19.40
2018-09-14T10:57:27.877Z,19.50
2018-09-14T10:59:56.124Z,19.50
2018-09-14T11:02:24.328Z,19.60
2018-09-14T11:04:52.514Z,19.80
2018-09-14T11:07:20.701Z,19.90
2018-09-14T11:09:48.900Z,19.90
2018-09-14T11:12:17.028Z,19.80
2018-09-14T11:14:45.223Z,19.90
2018-09-14T11:17:13.444Z,19.90
2018-09-14T11:19:42.263Z,19.90
2018-09-14T11:22:10.465Z,20.00
2018-09-14T11:24:38.746Z,20.00
2018-09-14T11:27:07.010Z,20.00
2018-09-14T11:29:35.145Z,19.90
2018-09-14T11:32:03.320Z,20.00
2018-09-14T11:34:31.493Z,20.10
2018-09-14T11:36:59.693Z,20.10
2018-09-14T11:39:27.952Z,20.10
2018-09-14T11:41:56.156Z,20.20
2018-09-14T11:44:24.435Z,20.30
2018-09-14T11:46:52.504Z,20.20
2018-09-14T11:49:20.735Z,20.30
2018-09-14T11:51:49.015Z,20.40
2018-09-14T11:54:17.356Z,20.50
2018-09-14T11:56:45.432Z,20.50
2018-09-14T11:59:13.657Z,20.60
2018-09-14T12:01:41.984Z,20.50
2018-09-14T12:04:11.711Z,20.50
2018-09-14T12:06:40.340Z,20.50
2018-09-14T12:09:10.877Z,20.70
2018-09-14T12:11:41.868Z,20.70
2018-09-14T12:14:10.994Z,20.80
2018-09-14T12:16:39.097Z,20.70
2018-09-14T12:19:07.309Z,20.90
2018-09-14T12:21:35.576Z,20.90
2018-09-14T12:24:07.790Z,20.90
2018-09-14T12:26:36.170Z,20.90
2018-09-14T12:29:04.367Z,20.80
2018-09-14T12:31:32.598Z,21.00
2018-09-14T12:34:00.800Z,21.10
2018-09-14T12:36:28.969Z,21.10
2018-09-14T12:38:57.195Z,21.20
2018-09-14T12:41:25.484Z,21.20
2018-09-14T12:43:53.675Z,21.20
2018-09-14T12:46:24.895Z,21.20
2018-09-14T12:48:53.126Z,21.10
2018-09-14T12:51:26.817Z,21.00
2018-09-14T12:53:55.949Z,20.90
2018-09-14T12:56:24.242Z,20.80
2018-09-14T12:58:52.369Z,20.80
2018-09-14T13:01:20.613Z,20.80
2018-09-14T13:03:54.467Z,20.90
2018-09-14T13:06:22.640Z,20.90
2018-09-14T13:11:19.012Z,20.90
2018-09-14T13:13:50.072Z,20.90
2018-09-14T13:16:18.489Z,20.90
2018-09-14T13:18:46.715Z,20.90
2018-09-14T13:21:17.355Z,20.90
2018-09-14T13:23:45.926Z,21.10
2018-09-14T13:26:14.221Z,21.10
2018-09-14T13:28:42.673Z,21.10
2018-09-14T13:31:10.864Z,21.10
2018-09-14T13:33:39.166Z,21.20
2018-09-14T13:36:07.486Z,21.30
2018-09-14T13:38:35.758Z,21.30
2018-09-14T13:41:03.952Z,21.20
2018-09-14T13:43:32.220Z,21.20
2018-09-14T13:46:00.652Z,21.30
2018-09-14T13:48:28.868Z,21.30
2018-09-14T13:50:57.052Z,21.30
2018-09-14T13:53:26.009Z,21.40
2018-09-14T13:55:54.186Z,21.30
2018-09-14T13:58:22.485Z,21.40
2018-09-14T14:00:50.768Z,21.40
2018-09-14T14:03:19.060Z,21.50
2018-09-14T14:05:55.121Z,21.40
2018-09-14T14:08:25.482Z,21.30
2018-09-14T14:10:57.958Z,21.30
2018-09-14T14:13:26.297Z,21.30
2018-09-14T14:15:56.356Z,21.30
2018-09-14T14:18:24.632Z,21.30
2018-09-14T14:20:57.490Z,21.40
2018-09-14T14:23:26.248Z,21.60
2018-09-14T14:25:56.310Z,21.70
2018-09-14T14:28:26.472Z,21.70
2018-09-14T14:30:57.088Z,22.00
2018-09-14T14:33:25.340Z,22.00
2018-09-14T14:35:55.562Z,22.00
2018-09-14T14:38:23.833Z,21.90
2018-09-14T14:40:56.234Z,21.90
2018-09-14T14:43:24.495Z,21.80
2018-09-14T14:45:56.417Z,21.90
2018-09-14T14:48:24.664Z,21.90
2018-09-14T14:50:55.566Z,21.90
2018-09-14T14:53:23.940Z,21.90
2018-09-14T14:55:55.520Z,21.90
2018-09-14T14:58:23.866Z,21.90
2018-09-14T15:00:58.108Z,22.00
2018-09-14T15:03:26.298Z,22.20
2018-09-14T15:05:54.485Z,22.10
2018-09-14T15:08:26.500Z,22.10
2018-09-14T15:10:55.773Z,22.10
2018-09-14T15:13:25.931Z,22.50
2018-09-14T15:15:55.420Z,22.80
2018-09-14T15:18:25.933Z,22.70
2018-09-14T15:20:57.996Z,22.20
2018-09-14T15:23:26.272Z,22.00
2018-09-14T15:25:55.832Z,21.90
2018-09-14T15:28:25.865Z,21.90
2018-09-14T15:30:54.249Z,21.80
2018-09-14T15:33:25.587Z,21.70
2018-09-14T15:35:53.853Z,21.60
2018-09-14T15:38:26.150Z,21.60
2018-09-14T15:40:56.064Z,21.60
2018-09-14T15:43:28.830Z,21.80
2018-09-14T15:45:56.999Z,22.30
2018-09-14T15:48:26.743Z,22.20
2018-09-14T15:50:56.334Z,22.20
2018-09-14T15:53:30.652Z,22.10
2018-09-14T15:55:59.225Z,21.90
2018-09-14T15:58:27.579Z,21.90
2018-09-14T16:00:56.188Z,21.60
2018-09-14T16:03:25.952Z,21.60
2018-09-14T16:05:55.600Z,21.50
2018-09-14T16:08:26.094Z,21.50
2018-09-14T16:10:55.976Z,21.60
2018-09-14T16:13:26.944Z,21.70
2018-09-14T16:15:55.730Z,21.70
2018-09-14T16:18:24.115Z,21.90
2018-09-14T16:20:52.606Z,21.90
2018-09-14T16:23:21.291Z,22.20
2018-09-14T16:25:49.794Z,22.20
2018-09-14T16:28:19.038Z,22.20
2018-09-14T16:30:47.423Z,22.20
2018-09-14T16:33:16.011Z,22.00
2018-09-14T16:35:45.106Z,21.90
2018-09-14T16:40:43.360Z,21.50
2018-09-14T16:43:11.843Z,21.40
2018-09-14T16:45:40.167Z,21.40
2018-09-14T16:48:12.191Z,21.40
2018-09-14T16:50:40.820Z,21.30
2018-09-14T16:53:09.988Z,21.30
2018-09-14T16:55:38.698Z,21.30
2018-09-14T16:58:08.242Z,21.10
2018-09-14T17:00:37.302Z,21.20
2018-09-14T17:03:06.238Z,21.10
2018-09-14T17:05:35.016Z,21.00
2018-09-14T17:08:04.425Z,20.90
2018-09-14T17:10:33.160Z,20.90
2018-09-14T17:13:01.650Z,20.80
2018-09-14T17:15:30.458Z,20.80
2018-09-14T17:17:59.041Z,20.70
2018-09-14T17:20:27.526Z,20.70
2018-09-14T17:22:56.343Z,20.60
2018-09-14T17:25:25.312Z,20.60
2018-09-14T17:27:54.073Z,20.60
2018-09-14T17:30:22.826Z,20.50
2018-09-14T17:32:51.386Z,20.40
2018-09-14T17:35:20.372Z,20.40
2018-09-14T17:37:49.163Z,20.40
2018-09-14T17:40:17.423Z,20.30
2018-09-14T17:45:14.551Z,20.30
2018-09-14T17:47:43.431Z,20.20
2018-09-14T17:50:12.337Z,20.20
2018-09-14T17:52:41.468Z,20.10
2018-09-14T17:55:11.103Z,20.10
2018-09-14T17:57:42.818Z,20.10
2018-09-14T18:00:11.466Z,20.10
2018-09-14T18:05:08.187Z,20.00
2018-09-14T18:07:36.789Z,20.00
2018-09-14T18:10:05.728Z,20.00
2018-09-14T18:12:35.463Z,19.90
2018-09-14T18:15:04.245Z,19.80
2018-09-14T18:17:32.734Z,19.80
2018-09-14T18:22:29.616Z,19.80
2018-09-14T18:24:58.482Z,19.80
2018-09-14T18:27:27.532Z,19.80
2018-09-14T18:29:55.936Z,19.80
2018-09-14T18:32:24.968Z,19.80
2018-09-14T18:34:53.648Z,19.80
2018-09-14T18:37:22.358Z,19.80
2018-09-14T18:39:50.969Z,19.70
2018-09-14T18:42:19.440Z,19.70
2018-09-14T18:44:47.960Z,19.70
2018-09-14T18:47:16.250Z,19.60
2018-09-14T18:49:44.629Z,19.60
2018-09-14T18:52:13.109Z,19.60
2018-09-14T18:54:41.410Z,19.50
2018-09-14T18:57:09.835Z,19.60
2018-09-14T18:59:38.253Z,19.60
2018-09-14T19:02:07.011Z,19.50
2018-09-14T19:04:35.525Z,19.40
2018-09-14T19:09:32.124Z,19.50
2018-09-14T19:12:00.596Z,19.40
2018-09-14T19:14:29.342Z,19.40
2018-09-14T19:16:57.939Z,19.40
2018-09-14T19:19:26.786Z,19.30
2018-09-14T19:21:55.258Z,19.30
2018-09-14T19:24:23.679Z,19.20
2018-09-14T19:26:52.648Z,19.20
2018-09-14T19:29:20.999Z,19.20
2018-09-14T19:31:51.463Z,19.20
2018-09-14T19:34:21.678Z,19.20
2018-09-14T19:36:50.419Z,19.20
2018-09-14T19:39:18.803Z,19.20
2018-09-14T19:41:47.138Z,19.20
2018-09-14T19:44:16.099Z,19.10
2018-09-14T19:46:45.277Z,19.10
2018-09-14T19:49:13.704Z,19.10
2018-09-14T19:51:42.057Z,19.00
2018-09-14T19:54:11.273Z,18.90
2018-09-14T19:56:40.544Z,18.90
2018-09-14T19:59:10.746Z,18.90
2018-09-14T20:01:39.042Z,18.90
2018-09-14T20:04:07.568Z,18.90
2018-09-14T20:06:35.990Z,18.90
2018-09-14T20:09:08.685Z,18.90
2018-09-14T20:11:37.130Z,18.90
2018-09-14T20:14:05.481Z,18.90
2018-09-14T20:19:02.265Z,18.80
2018-09-14T20:21:30.951Z,18.80
2018-09-14T20:23:59.894Z,18.80
2018-09-14T20:26:28.426Z,18.90
2018-09-14T20:28:56.753Z,18.90
2018-09-14T20:31:25.189Z,18.80
2018-09-14T20:33:53.661Z,18.80
2018-09-14T20:36:22.139Z,18.70
2018-09-14T20:38:50.581Z,18.70
2018-09-14T20:41:18.932Z,18.70
2018-09-14T20:43:47.284Z,18.60
2018-09-14T20:46:15.662Z,18.60
2018-09-14T20:48:43.879Z,18.70
2018-09-14T20:51:12.184Z,18.70
2018-09-14T20:53:40.514Z,18.70
2018-09-14T20:56:08.900Z,18.70
2018-09-14T20:58:37.170Z,18.70
2018-09-14T21:01:05.798Z,18.70
2018-09-14T21:03:34.170Z,18.70
2018-09-14T21:06:02.657Z,18.70
2018-09-14T21:08:31.033Z,18.70
2018-09-14T21:10:59.480Z,18.50
2018-09-14T21:13:27.997Z,18.50
2018-09-14T21:15:56.406Z,18.50
2018-09-14T21:18:24.726Z,18.40
2018-09-14T21:20:53.009Z,18.30
2018-09-14T21:23:21.283Z,18.30
2018-09-14T21:25:49.679Z,18.20
2018-09-14T21:28:18.004Z,18.10
2018-09-14T21:30:46.531Z,18.10
2018-09-14T21:33:15.111Z,18.00
2018-09-14T21:35:43.673Z,18.00
2018-09-14T21:38:11.931Z,17.80
2018-09-14T21:40:40.241Z,17.80
2018-09-14T21:43:08.482Z,17.80
2018-09-14T21:45:36.903Z,17.70
2018-09-14T21:48:05.215Z,17.70
2018-09-14T21:50:33.442Z,17.70
2018-09-14T21:53:01.776Z,17.70
2018-09-14T21:55:30.054Z,17.60
2018-09-14T21:57:58.422Z,17.60
2018-09-14T22:00:32.162Z,17.60
2018-09-14T22:03:00.433Z,17.50
2018-09-14T22:05:29.044Z,17.40
2018-09-14T22:07:57.439Z,17.40
2018-09-14T22:10:25.707Z,17.40
2018-09-14T22:12:54.104Z,17.30
2018-09-14T22:15:22.544Z,17.30
2018-09-14T22:17:50.834Z,17.30
2018-09-14T22:20:19.202Z,17.30
2018-09-14T22:22:47.500Z,17.30
2018-09-14T22:25:15.816Z,17.30
2018-09-14T22:27:44.155Z,17.20
2018-09-14T22:30:12.515Z,17.30
2018-09-14T22:32:40.864Z,17.20
2018-09-14T22:35:09.294Z,17.20
2018-09-14T22:37:37.546Z,17.20
2018-09-14T22:40:05.948Z,17.20
2018-09-14T22:42:34.442Z,17.10
2018-09-14T22:45:02.894Z,17.10
2018-09-14T22:47:31.287Z,17.10
2018-09-14T22:49:59.775Z,17.00
2018-09-14T22:52:28.292Z,16.80
2018-09-14T22:54:56.762Z,16.80
2018-09-14T22:57:25.245Z,16.70
2018-09-14T22:59:53.804Z,16.70
2018-09-14T23:02:22.211Z,16.70
2018-09-14T23:04:50.863Z,16.70
2018-09-14T23:07:19.455Z,16.60
2018-09-14T23:09:48.026Z,16.60
2018-09-14T23:12:17.264Z,16.60
2018-09-14T23:14:45.912Z,16.60
2018-09-14T23:17:14.336Z,16.60
2018-09-14T23:19:42.717Z,16.50
2018-09-14T23:22:11.104Z,16.50
2018-09-14T23:24:39.658Z,16.50
2018-09-14T23:27:07.959Z,16.40
2018-09-14T23:29:36.530Z,16.40
2018-09-14T23:32:05.062Z,16.30
2018-09-14T23:34:33.529Z,16.30
2018-09-14T23:37:01.841Z,16.20
2018-09-14T23:39:30.443Z,16.20
2018-09-14T23:41:59.008Z,16.20
2018-09-14T23:44:27.376Z,16.20
2018-09-14T23:46:55.902Z,16.20
2018-09-14T23:49:24.293Z,16.10
2018-09-14T23:51:52.862Z,16.20
2018-09-14T23:54:21.517Z,16.10
2018-09-14T23:56:49.938Z,16.20
2018-09-14T23:59:18.315Z,16.10
